Time;durP1;ratioP1;P1;durP2;ratioP2;P2;SDS_P1;SDS_P2;PMS_P1;PMS_P2;Temp;Humidity;BMP_temperature;BMP_pressure;BME280_temperature;BME280_humidity;BME280_pressure;Samples;Min_cycle;Max_cycle;Signal;HPM_P1;HPM_P2
2024/01/03 00:00:02;;;;;;;29.35;5.30;;;11.60;99.90;;;;;;5040229;28;20021;-76
2024/01/03 00:02:28;;;;;;;17.73;4.47;;;11.50;99.90;;;;;;5040325;28;20012;-76
2024/01/03 00:04:54;;;;;;;17.50;3.90;;;11.50;99.90;;;;;;5042110;28;20021;-76
2024/01/03 00:07:20;;;;;;;16.20;3.22;;;11.40;99.90;;;;;;5045412;28;20066;-76
2024/01/03 00:09:46;;;;;;;25.77;4.35;;;11.40;99.90;;;;;;5043551;28;20057;-75
2024/01/03 00:12:22;;;;;;;27.75;4.15;;;11.40;99.90;;;;;;5042076;28;20033;-75
2024/01/03 00:14:48;;;;;;;21.95;3.83;;;11.40;99.90;;;;;;5044973;28;20013;-75
2024/01/03 00:17:14;;;;;;;20.77;4.45;;;11.40;99.90;;;;;;5055022;28;20037;-75
2024/01/03 00:19:40;;;;;;;32.78;5.13;;;11.40;99.90;;;;;;5044338;28;20029;-76
2024/01/03 00:22:10;;;;;;;18.52;3.80;;;11.50;99.90;;;;;;5053496;28;20030;-76
2024/01/03 00:24:45;;;;;;;21.85;4.35;;;11.40;99.90;;;;;;5052694;28;20020;-75
2024/01/03 00:27:11;;;;;;;20.80;3.38;;;11.40;99.90;;;;;;5055992;28;20112;-75
2024/01/03 00:29:43;;;;;;;27.77;3.95;;;11.40;99.90;;;;;;5056203;28;20029;-76
2024/01/03 00:32:10;;;;;;;21.35;4.15;;;11.40;99.90;;;;;;5044914;28;20033;-75
2024/01/03 00:34:40;;;;;;;25.67;3.47;;;11.40;99.90;;;;;;5048142;28;20594;-75
2024/01/03 00:37:14;;;;;;;19.77;4.13;;;11.30;99.90;;;;;;5044849;28;20048;-79
2024/01/03 00:39:40;;;;;;;17.83;3.72;;;11.30;99.90;;;;;;5031769;28;20087;-75
2024/01/03 00:42:06;;;;;;;26.73;3.95;;;11.30;99.90;;;;;;5016256;28;20582;-75
2024/01/03 00:44:31;;;;;;;24.92;5.53;;;11.30;99.90;;;;;;5042035;28;20108;-75
2024/01/03 00:46:57;;;;;;;25.90;4.20;;;11.30;99.90;;;;;;5044797;28;21087;-75
2024/01/03 00:49:24;;;;;;;28.27;4.32;;;11.30;99.90;;;;;;5042599;28;20384;-76
2024/01/03 00:51:50;;;;;;;22.73;3.90;;;11.30;99.90;;;;;;5035792;28;21853;-75
2024/01/03 00:54:18;;;;;;;28.23;5.18;;;11.30;99.90;;;;;;5039720;28;20536;-74
2024/01/03 00:56:45;;;;;;;28.13;4.65;;;11.30;99.90;;;;;;5036699;28;20037;-75
2024/01/03 00:59:12;;;;;;;24.90;5.93;;;11.40;99.90;;;;;;5043626;28;20100;-75
2024/01/03 01:01:38;;;;;;;32.45;6.35;;;11.40;99.90;;;;;;5036085;28;20029;-76
2024/01/03 01:04:04;;;;;;;30.10;4.65;;;11.40;99.90;;;;;;5043295;28;20036;-75
2024/01/03 01:06:30;;;;;;;24.02;4.93;;;11.40;99.90;;;;;;5037437;28;20588;-76
2024/01/03 01:08:56;;;;;;;28.30;5.10;;;11.40;99.90;;;;;;5037549;28;20056;-76
2024/01/03 01:11:21;;;;;;;29.88;4.85;;;11.40;99.90;;;;;;5040040;28;20123;-77
2024/01/03 01:13:47;;;;;;;26.40;4.93;;;11.30;99.90;;;;;;5039655;28;20433;-76
2024/01/03 01:16:13;;;;;;;19.98;4.20;;;11.40;99.90;;;;;;5035623;28;20484;-76
2024/01/03 01:18:38;;;;;;;26.13;4.10;;;11.40;99.90;;;;;;5038523;28;22152;-75
2024/01/03 01:21:04;;;;;;;23.70;5.60;;;11.40;99.90;;;;;;5036186;28;20397;-76
2024/01/03 01:23:30;;;;;;;22.80;4.40;;;11.40;99.90;;;;;;5036896;28;20029;-75
2024/01/03 01:25:56;;;;;;;30.05;4.28;;;11.40;99.90;;;;;;5042916;28;20052;-75
2024/01/03 01:28:21;;;;;;;19.65;3.60;;;11.40;99.90;;;;;;5042977;28;20056;-75
2024/01/03 01:30:47;;;;;;;25.20;4.28;;;11.50;99.90;;;;;;5036445;28;20064;-75
2024/01/03 01:33:13;;;;;;;21.20;3.72;;;11.50;99.90;;;;;;5036045;28;20454;-75
2024/01/03 01:35:39;;;;;;;16.63;3.53;;;11.50;99.90;;;;;;5039332;28;20028;-76
2024/01/03 01:38:06;;;;;;;18.20;2.97;;;11.40;99.90;;;;;;5033017;28;20044;-76
2024/01/03 01:40:32;;;;;;;21.02;4.70;;;11.40;99.90;;;;;;5036245;28;20600;-76
2024/01/03 01:42:58;;;;;;;21.02;4.10;;;11.30;99.90;;;;;;5038960;28;20119;-76
2024/01/03 01:45:23;;;;;;;20.38;4.60;;;11.30;99.90;;;;;;5042535;28;20032;-77
2024/01/03 01:47:50;;;;;;;14.52;3.50;;;11.30;99.90;;;;;;5036001;28;20096;-76
2024/01/03 01:50:18;;;;;;;26.73;4.00;;;11.30;99.90;;;;;;5039328;28;20524;-76
2024/01/03 01:52:44;;;;;;;17.55;3.72;;;11.40;99.90;;;;;;5036069;28;20029;-77
2024/01/03 01:55:11;;;;;;;22.17;4.38;;;11.30;99.90;;;;;;5031498;28;20049;-75
2024/01/03 01:57:38;;;;;;;25.73;4.07;;;11.30;99.90;;;;;;5042738;28;20036;-76
2024/01/03 02:00:05;;;;;;;17.52;3.78;;;11.30;99.90;;;;;;5039510;28;20060;-75
2024/01/03 02:02:32;;;;;;;28.08;4.28;;;11.40;99.90;;;;;;5040440;28;20022;-76
2024/01/03 02:04:58;;;;;;;18.13;3.60;;;11.40;99.90;;;;;;5033705;28;20087;-76
2024/01/03 02:07:25;;;;;;;19.63;3.97;;;11.30;99.90;;;;;;5036818;28;20060;-75
2024/01/03 02:09:50;;;;;;;17.77;3.65;;;11.20;99.90;;;;;;5036919;28;20026;-75
2024/01/03 02:12:16;;;;;;;15.10;3.20;;;11.30;99.90;;;;;;5036735;28;20076;-76
2024/01/03 02:14:42;;;;;;;23.40;3.95;;;11.20;99.90;;;;;;5032517;28;20060;-76
2024/01/03 02:17:08;;;;;;;17.05;3.28;;;11.30;99.90;;;;;;5041432;28;20446;-75
2024/01/03 02:19:34;;;;;;;19.67;3.40;;;11.30;99.90;;;;;;5037252;28;20559;-76
2024/01/03 02:22:00;;;;;;;11.80;3.40;;;11.30;99.90;;;;;;5033569;28;20033;-76
2024/01/03 02:24:26;;;;;;;18.88;4.20;;;11.30;99.90;;;;;;5035499;28;20021;-75
2024/01/03 02:26:51;;;;;;;14.07;2.90;;;11.20;99.90;;;;;;5038606;28;20060;-75
2024/01/03 02:29:17;;;;;;;23.35;3.45;;;11.30;99.90;;;;;;5035775;28;20024;-76
2024/01/03 02:31:43;;;;;;;16.70;3.30;;;11.30;99.90;;;;;;5039004;28;20044;-76
2024/01/03 02:34:08;;;;;;;17.13;3.42;;;11.30;99.90;;;;;;5033392;28;20152;-75
2024/01/03 02:36:34;;;;;;;13.77;2.35;;;11.20;99.90;;;;;;5037511;28;20385;-75
2024/01/03 02:39:00;;;;;;;13.93;2.50;;;11.20;99.90;;;;;;5039993;28;20496;-75
2024/01/03 02:41:26;;;;;;;13.30;3.13;;;11.20;99.90;;;;;;5042070;28;20025;-76
2024/01/03 02:43:51;;;;;;;16.63;3.55;;;11.20;99.90;;;;;;5036234;28;20092;-75
2024/01/03 02:46:18;;;;;;;13.15;2.60;;;11.20;99.90;;;;;;5036168;28;20029;-76
2024/01/03 02:48:44;;;;;;;17.02;3.20;;;11.20;99.90;;;;;;5037664;28;20017;-75
2024/01/03 02:51:20;;;;;;;15.40;3.28;;;11.20;99.90;;;;;;5038383;28;20033;-75
2024/01/03 02:53:46;;;;;;;14.43;2.80;;;11.20;99.90;;;;;;5036307;28;20099;-75
2024/01/03 02:56:11;;;;;;;17.20;3.00;;;11.30;99.90;;;;;;5032412;28;20466;-75
2024/01/03 02:58:38;;;;;;;23.17;3.25;;;11.30;99.90;;;;;;5038636;28;20025;-75
2024/01/03 03:01:07;;;;;;;17.98;3.20;;;11.20;99.90;;;;;;5038218;28;20556;-75
2024/01/03 03:03:33;;;;;;;21.40;3.67;;;11.30;99.90;;;;;;5035138;28;20028;-75
2024/01/03 03:06:00;;;;;;;17.33;2.85;;;11.30;99.90;;;;;;5038105;28;20032;-75
2024/01/03 03:08:25;;;;;;;13.98;3.55;;;11.30;99.90;;;;;;5033676;28;20020;-75
2024/01/03 03:10:51;;;;;;;22.15;3.55;;;11.30;99.90;;;;;;5033481;28;20398;-75
2024/01/03 03:13:17;;;;;;;24.88;4.30;;;11.30;99.90;;;;;;5039933;28;20056;-75
2024/01/03 03:15:42;;;;;;;19.15;3.28;;;11.40;99.90;;;;;;5034019;28;20385;-75
2024/01/03 03:18:08;;;;;;;19.48;2.83;;;11.40;99.90;;;;;;5037101;28;20029;-76
2024/01/03 03:20:34;;;;;;;21.58;3.53;;;11.20;99.90;;;;;;5035919;28;20108;-75
2024/01/03 03:23:00;;;;;;;19.02;4.65;;;11.30;99.90;;;;;;5035773;28;20104;-75
2024/01/03 03:25:25;;;;;;;20.65;5.80;;;11.30;99.90;;;;;;5036116;28;20426;-75
2024/01/03 03:27:51;;;;;;;16.67;3.72;;;11.30;99.90;;;;;;5034233;28;20884;-75
2024/01/03 03:30:17;;;;;;;27.23;4.88;;;11.40;99.90;;;;;;5036939;28;20037;-75
2024/01/03 03:32:45;;;;;;;18.35;4.22;;;11.40;99.90;;;;;;5042859;28;20585;-75
2024/01/03 03:35:14;;;;;;;15.60;2.97;;;11.40;99.90;;;;;;5036541;28;20029;-75
2024/01/03 03:37:40;;;;;;;22.35;3.20;;;11.40;99.90;;;;;;5035658;28;20025;-75
2024/01/03 03:40:07;;;;;;;9.77;2.70;;;11.40;99.90;;;;;;5036256;28;20028;-74
2024/01/03 03:42:34;;;;;;;13.65;3.35;;;11.50;99.90;;;;;;5033475;28;20032;-75
2024/01/03 03:44:59;;;;;;;21.20;3.33;;;11.40;99.90;;;;;;5034176;28;20588;-76
2024/01/03 03:47:25;;;;;;;15.70;2.67;;;11.40;99.90;;;;;;5035322;28;20043;-75
2024/01/03 03:49:51;;;;;;;14.75;2.35;;;11.40;99.90;;;;;;5038562;28;20043;-75
2024/01/03 03:52:16;;;;;;;12.43;3.05;;;11.40;99.90;;;;;;5034666;28;20033;-76
2024/01/03 03:54:42;;;;;;;19.30;3.03;;;11.40;99.90;;;;;;5032288;28;20025;-75
2024/01/03 03:57:08;;;;;;;14.23;2.78;;;11.50;99.90;;;;;;5033727;28;20025;-75
2024/01/03 03:59:34;;;;;;;13.40;2.00;;;11.40;99.90;;;;;;5036293;28;20032;-76
2024/01/03 04:01:59;;;;;;;9.80;2.13;;;11.30;99.90;;;;;;5032368;28;20026;-75
2024/01/03 04:04:25;;;;;;;7.75;1.98;;;11.40;99.90;;;;;;5039236;28;20400;-76
2024/01/03 04:06:51;;;;;;;14.15;1.95;;;11.40;99.90;;;;;;5039991;28;20036;-76
2024/01/03 04:09:19;;;;;;;9.50;2.60;;;11.40;99.90;;;;;;5040980;28;20029;-76
2024/01/03 04:11:45;;;;;;;10.15;1.85;;;11.30;99.90;;;;;;5029712;28;20029;-76
2024/01/03 04:14:11;;;;;;;9.82;1.60;;;11.30;99.90;;;;;;5036291;28;20736;-76
2024/01/03 04:16:37;;;;;;;10.77;1.85;;;11.30;99.90;;;;;;5033597;28;20035;-76
2024/01/03 04:19:03;;;;;;;8.23;1.33;;;11.30;99.90;;;;;;5039179;28;20378;-76
2024/01/03 04:21:29;;;;;;;8.52;1.65;;;11.30;99.90;;;;;;5039334;28;20105;-75
2024/01/03 04:23:55;;;;;;;7.80;1.77;;;11.30;99.90;;;;;;5031925;28;20535;-76
2024/01/03 04:26:22;;;;;;;4.22;1.30;;;11.30;99.90;;;;;;5036702;28;20026;-76
2024/01/03 04:28:48;;;;;;;6.10;1.13;;;11.20;99.90;;;;;;5034171;28;20060;-76
2024/01/03 04:31:14;;;;;;;4.82;1.38;;;11.30;99.90;;;;;;5035326;28;20072;-76
2024/01/03 04:33:39;;;;;;;7.45;1.42;;;11.20;99.90;;;;;;5032327;28;20021;-75
2024/01/03 04:36:06;;;;;;;6.63;1.48;;;11.20;99.90;;;;;;5033420;28;20025;-75
2024/01/03 04:38:31;;;;;;;6.13;1.55;;;11.20;99.90;;;;;;5031648;28;20025;-76
2024/01/03 04:40:57;;;;;;;6.35;1.10;;;11.20;99.90;;;;;;5039391;28;20112;-76
2024/01/03 04:43:23;;;;;;;5.10;1.33;;;11.30;99.90;;;;;;5042184;28;20051;-76
2024/01/03 04:45:48;;;;;;;11.57;1.80;;;11.20;99.90;;;;;;5037363;28;20474;-76
2024/01/03 04:48:15;;;;;;;4.68;1.15;;;11.20;99.90;;;;;;5040728;28;20049;-75
2024/01/03 04:50:40;;;;;;;7.78;1.55;;;11.20;99.90;;;;;;5035287;28;20438;-76
2024/01/03 04:53:06;;;;;;;5.88;1.48;;;11.20;99.90;;;;;;5039693;28;20032;-77
2024/01/03 04:55:32;;;;;;;6.72;1.25;;;11.20;99.90;;;;;;5043391;28;20462;-76
2024/01/03 04:57:59;;;;;;;6.93;2.10;;;11.10;99.90;;;;;;5042799;28;20064;-76
2024/01/03 05:00:25;;;;;;;10.10;1.50;;;11.10;99.90;;;;;;5039811;28;20025;-76
2024/01/03 05:02:52;;;;;;;9.23;2.30;;;11.10;99.90;;;;;;5037573;28;20025;-76
2024/01/03 05:05:17;;;;;;;8.20;1.60;;;11.10;99.90;;;;;;5036401;28;20021;-76
2024/01/03 05:07:43;;;;;;;7.80;2.70;;;11.20;99.90;;;;;;5035616;28;20048;-75
2024/01/03 05:10:09;;;;;;;10.75;2.00;;;11.10;99.90;;;;;;5030653;28;20525;-76
2024/01/03 05:12:38;;;;;;;11.18;2.00;;;11.20;99.90;;;;;;5039153;28;20025;-76
2024/01/03 05:15:05;;;;;;;11.18;2.05;;;11.20;99.90;;;;;;5041563;28;20049;-76
2024/01/03 05:17:31;;;;;;;9.68;2.35;;;11.20;99.90;;;;;;5038858;28;20025;-76
2024/01/03 05:19:57;;;;;;;11.80;2.78;;;11.30;99.90;;;;;;5036716;28;20367;-76
2024/01/03 05:22:23;;;;;;;10.68;2.30;;;11.10;99.90;;;;;;5042227;28;20119;-76
2024/01/03 05:24:48;;;;;;;12.02;2.88;;;11.10;99.90;;;;;;5039276;28;20029;-77
2024/01/03 05:27:14;;;;;;;13.07;2.38;;;11.10;99.90;;;;;;5039491;28;20021;-77
2024/01/03 05:29:40;;;;;;;9.93;1.80;;;11.20;99.90;;;;;;5037630;28;20494;-77
2024/01/03 05:32:06;;;;;;;10.82;2.30;;;11.10;99.90;;;;;;5038441;28;20060;-77
2024/01/03 05:34:31;;;;;;;12.38;2.03;;;11.20;99.90;;;;;;5041935;28;20460;-77
2024/01/03 05:36:57;;;;;;;7.18;1.77;;;11.20;99.90;;;;;;5039668;28;20600;-77
2024/01/03 05:39:23;;;;;;;10.52;2.33;;;11.00;99.90;;;;;;5035975;28;20490;-76
2024/01/03 05:41:51;;;;;;;11.38;1.98;;;11.00;99.90;;;;;;5031914;28;20041;-76
2024/01/03 05:44:16;;;;;;;12.88;1.85;;;11.00;99.90;;;;;;5036275;28;20048;-76
2024/01/03 05:46:42;;;;;;;10.07;2.15;;;11.10;99.90;;;;;;5035574;28;20036;-76
2024/01/03 05:49:08;;;;;;;6.60;1.83;;;11.00;99.90;;;;;;5035626;28;20029;-77
2024/01/03 05:51:34;;;;;;;8.20;1.55;;;11.00;99.90;;;;;;5033534;28;20075;-76
2024/01/03 05:54:00;;;;;;;9.20;1.73;;;11.00;99.90;;;;;;5039924;28;20037;-76
2024/01/03 05:56:27;;;;;;;12.23;2.00;;;11.00;99.90;;;;;;5034777;28;20025;-77
2024/01/03 05:58:52;;;;;;;8.48;1.90;;;11.00;99.90;;;;;;5036039;28;20116;-77
2024/01/03 06:01:18;;;;;;;15.63;2.28;;;11.10;99.90;;;;;;5030963;28;20104;-77
2024/01/03 06:03:44;;;;;;;11.20;1.63;;;11.10;99.90;;;;;;5040476;28;20473;-77
2024/01/03 06:06:10;;;;;;;9.50;1.98;;;11.20;99.90;;;;;;5039699;28;20397;-77
2024/01/03 06:08:36;;;;;;;13.90;2.28;;;11.20;99.90;;;;;;5037650;28;20029;-77
2024/01/03 06:11:02;;;;;;;12.23;1.80;;;11.10;99.90;;;;;;5041462;28;20639;-77
2024/01/03 06:13:28;;;;;;;12.38;2.53;;;11.20;99.90;;;;;;5033592;28;20029;-77
2024/01/03 06:15:54;;;;;;;13.45;2.42;;;11.20;99.90;;;;;;5041440;28;20112;-77
2024/01/03 06:18:21;;;;;;;13.40;2.70;;;11.20;99.90;;;;;;5035534;28;20502;-77
2024/01/03 06:20:47;;;;;;;12.88;2.28;;;11.20;99.90;;;;;;5035507;28;20094;-77
2024/01/03 06:23:13;;;;;;;12.45;2.70;;;11.20;99.90;;;;;;5037979;28;20021;-77
2024/01/03 06:25:39;;;;;;;12.88;2.45;;;11.20;99.90;;;;;;5033574;28;20088;-77
2024/01/03 06:28:05;;;;;;;11.07;2.67;;;11.20;99.90;;;;;;5036054;28;20025;-77
2024/01/03 06:30:30;;;;;;;11.82;2.53;;;11.10;99.90;;;;;;5039812;28;20535;-77
2024/01/03 06:32:56;;;;;;;13.25;2.47;;;11.20;99.90;;;;;;5032700;28;20029;-77
2024/01/03 06:35:22;;;;;;;16.17;3.30;;;11.20;99.90;;;;;;5035527;28;20084;-77
2024/01/03 06:37:48;;;;;;;16.33;2.60;;;11.20;99.90;;;;;;5038350;28;20104;-77
2024/01/03 06:40:14;;;;;;;15.25;3.67;;;11.20;99.90;;;;;;5033481;28;20033;-77
2024/01/03 06:42:40;;;;;;;25.60;3.65;;;11.20;99.90;;;;;;5033818;28;20017;-78
2024/01/03 06:45:06;;;;;;;15.27;3.00;;;11.10;99.90;;;;;;5034963;28;20064;-78
2024/01/03 06:47:32;;;;;;;20.90;3.78;;;11.10;99.90;;;;;;5039406;28;20112;-77
2024/01/03 06:49:58;;;;;;;11.95;1.85;;;11.00;99.90;;;;;;5033531;28;20108;-78
2024/01/03 06:52:24;;;;;;;7.13;1.80;;;10.80;99.90;;;;;;5034835;28;20033;-77
2024/01/03 06:54:50;;;;;;;4.47;0.60;;;10.70;99.90;;;;;;5035464;28;20545;-78
2024/01/03 06:57:16;;;;;;;7.22;0.80;;;10.60;99.90;;;;;;5031734;28;20425;-77
2024/01/03 06:59:41;;;;;;;2.45;0.90;;;10.50;99.90;;;;;;5038885;28;20458;-77
2024/01/03 07:02:08;;;;;;;2.05;0.70;;;10.50;99.90;;;;;;5034813;28;20036;-78
2024/01/03 07:04:33;;;;;;;2.38;0.75;;;10.40;99.90;;;;;;5032526;28;20175;-78
2024/01/03 07:06:59;;;;;;;2.20;0.50;;;10.40;99.90;;;;;;5034292;28;20514;-78
2024/01/03 07:09:25;;;;;;;3.00;0.98;;;10.40;99.90;;;;;;5033974;28;20033;-77
2024/01/03 07:11:51;;;;;;;4.65;0.70;;;10.30;99.90;;;;;;5037043;28;20029;-77
2024/01/03 07:14:16;;;;;;;1.15;0.40;;;10.30;99.90;;;;;;5040479;28;20450;-78
2024/01/03 07:16:42;;;;;;;5.15;0.90;;;10.30;99.90;;;;;;5033987;28;20048;-78
2024/01/03 07:19:08;;;;;;;2.55;0.80;;;10.40;99.90;;;;;;5033311;28;20043;-78
2024/01/03 07:21:33;;;;;;;2.60;0.60;;;10.30;99.90;;;;;;5032006;28;20445;-78
2024/01/03 07:23:59;;;;;;;3.83;0.70;;;10.40;99.90;;;;;;5036128;28;20032;-77
2024/01/03 07:26:25;;;;;;;2.50;0.80;;;10.40;99.90;;;;;;5034943;28;20030;-78
2024/01/03 07:28:51;;;;;;;2.83;1.23;;;10.40;99.90;;;;;;5037096;28;20053;-78
2024/01/03 07:31:17;;;;;;;7.05;1.00;;;10.40;99.90;;;;;;5033151;28;20086;-78
2024/01/03 07:33:43;;;;;;;8.55;1.30;;;10.50;99.90;;;;;;5037337;28;20025;-77
2024/01/03 07:36:08;;;;;;;4.20;0.95;;;10.40;99.90;;;;;;5030366;28;20032;-78
2024/01/03 07:38:34;;;;;;;10.13;1.50;;;10.40;99.90;;;;;;5034214;28;20095;-78
2024/01/03 07:41:00;;;;;;;6.68;1.10;;;10.40;99.90;;;;;;5029906;28;20033;-78
2024/01/03 07:43:30;;;;;;;6.25;1.52;;;10.40;99.90;;;;;;5036025;28;20025;-77
2024/01/03 07:45:58;;;;;;;10.07;1.27;;;10.50;99.90;;;;;;5035211;28;20043;-78
2024/01/03 07:48:24;;;;;;;8.80;2.00;;;10.40;99.90;;;;;;5034283;28;20490;-77
2024/01/03 07:50:50;;;;;;;12.77;2.10;;;10.50;99.90;;;;;;5032709;28;20079;-76
2024/01/03 07:53:16;;;;;;;10.43;1.60;;;10.50;99.90;;;;;;5035860;28;20474;-76
2024/01/03 07:55:41;;;;;;;5.88;1.50;;;10.50;99.90;;;;;;5037545;28;20029;-76
2024/01/03 07:58:08;;;;;;;10.40;2.28;;;10.60;99.90;;;;;;5037769;28;20018;-76
2024/01/03 08:00:34;;;;;;;16.00;2.22;;;10.50;99.90;;;;;;5034256;28;20029;-77
2024/01/03 08:02:59;;;;;;;12.07;2.53;;;10.50;99.90;;;;;;5033996;28;20039;-77
2024/01/03 08:05:25;;;;;;;11.63;2.15;;;10.50;99.90;;;;;;5032467;28;20319;-77
2024/01/03 08:07:51;;;;;;;11.73;2.40;;;10.60;99.90;;;;;;5033662;28;20363;-76
2024/01/03 08:10:17;;;;;;;12.10;2.38;;;10.50;99.90;;;;;;5034325;28;20037;-76
2024/01/03 08:12:42;;;;;;;11.43;2.75;;;10.60;99.90;;;;;;5036882;28;20021;-75
2024/01/03 08:15:09;;;;;;;10.05;2.45;;;10.50;99.90;;;;;;5037022;28;20036;-75
2024/01/03 08:17:34;;;;;;;13.20;2.50;;;10.50;99.90;;;;;;5035348;28;20025;-75
2024/01/03 08:20:00;;;;;;;10.82;2.30;;;10.60;99.90;;;;;;5038211;28;20037;-75
2024/01/03 08:22:26;;;;;;;13.95;2.70;;;10.70;99.90;;;;;;5038683;28;20021;-74
2024/01/03 08:24:52;;;;;;;23.40;3.45;;;10.70;99.90;;;;;;5037919;28;20040;-75
2024/01/03 08:27:18;;;;;;;17.50;2.20;;;10.60;99.90;;;;;;5038258;28;20424;-74
2024/01/03 08:29:44;;;;;;;19.88;2.65;;;10.60;99.90;;;;;;5040485;28;20063;-74
2024/01/03 08:32:10;;;;;;;15.50;2.40;;;10.50;99.90;;;;;;5037298;28;20470;-75
2024/01/03 08:34:36;;;;;;;18.40;2.95;;;10.70;99.90;;;;;;5037759;28;20022;-74
2024/01/03 08:37:01;;;;;;;14.52;3.13;;;10.70;99.90;;;;;;5035961;28;20482;-74
2024/01/03 08:39:27;;;;;;;16.90;2.80;;;10.70;99.90;;;;;;5035670;28;20030;-74
2024/01/03 08:42:04;;;;;;;21.30;3.45;;;10.70;99.90;;;;;;5034144;28;20040;-75
2024/01/03 08:44:30;;;;;;;20.10;3.25;;;10.70;99.90;;;;;;5039783;28;20454;-75
2024/01/03 08:46:55;;;;;;;17.27;3.13;;;10.80;99.90;;;;;;5035965;28;20490;-75
2024/01/03 08:49:21;;;;;;;20.92;3.42;;;10.80;99.90;;;;;;5040388;28;20100;-75
2024/01/03 08:51:48;;;;;;;15.00;2.70;;;10.80;99.90;;;;;;5037140;28;20067;-75
2024/01/03 08:54:14;;;;;;;19.20;3.53;;;10.80;99.90;;;;;;5038414;28;20112;-74
2024/01/03 08:56:40;;;;;;;19.63;3.50;;;10.80;99.90;;;;;;5037915;28;20517;-75
2024/01/03 08:59:06;;;;;;;18.17;3.50;;;10.90;99.90;;;;;;5039721;28;20049;-74
2024/01/03 09:01:34;;;;;;;17.65;3.25;;;10.80;99.90;;;;;;5035569;28;20110;-75
2024/01/03 09:04:01;;;;;;;16.52;3.28;;;10.80;99.90;;;;;;5041727;28;20033;-75
2024/01/03 09:06:27;;;;;;;16.65;3.35;;;10.90;99.90;;;;;;5033432;28;20021;-75
2024/01/03 09:08:54;;;;;;;20.88;4.10;;;11.00;99.90;;;;;;5040185;28;20034;-75
2024/01/03 09:11:24;;;;;;;15.15;3.35;;;11.00;99.90;;;;;;5038407;28;20076;-75
2024/01/03 09:13:50;;;;;;;17.55;3.33;;;11.00;99.90;;;;;;5039491;28;20144;-74
2024/01/03 09:16:22;;;;;;;18.42;3.40;;;11.10;99.90;;;;;;5041756;28;20493;-74
2024/01/03 09:18:48;;;;;;;17.77;3.17;;;11.10;99.90;;;;;;5038319;28;20028;-75
2024/01/03 09:21:15;;;;;;;15.52;2.53;;;11.00;99.90;;;;;;5037599;28;20036;-74
2024/01/03 09:23:41;;;;;;;11.82;3.08;;;11.00;99.90;;;;;;5041565;28;20045;-74
2024/01/03 09:26:10;;;;;;;17.35;2.65;;;11.00;99.90;;;;;;5037253;28;20584;-75
2024/01/03 09:28:37;;;;;;;17.58;3.92;;;11.10;99.90;;;;;;5038702;28;20032;-74
2024/01/03 09:31:03;;;;;;;16.95;2.80;;;11.10;99.90;;;;;;5038122;28;20084;-75
2024/01/03 09:33:29;;;;;;;19.60;3.30;;;11.10;99.90;;;;;;5033952;28;20018;-74
2024/01/03 09:35:55;;;;;;;22.85;4.47;;;11.00;99.90;;;;;;5036804;28;20036;-74
2024/01/03 09:38:20;;;;;;;19.42;4.00;;;11.10;99.90;;;;;;5035776;28;20452;-74
2024/01/03 09:40:47;;;;;;;24.65;3.55;;;11.10;99.90;;;;;;5032881;28;20101;-74
2024/01/03 09:43:14;;;;;;;19.27;3.72;;;11.20;99.90;;;;;;5038571;28;20489;-74
2024/01/03 09:45:40;;;;;;;22.20;4.45;;;11.20;99.90;;;;;;5033392;28;20048;-75
2024/01/03 09:48:09;;;;;;;22.25;4.75;;;11.10;99.90;;;;;;5039846;28;20441;-74
2024/01/03 09:50:35;;;;;;;28.67;4.40;;;11.10;99.90;;;;;;5038572;28;20072;-75
2024/01/03 09:53:02;;;;;;;21.48;4.30;;;11.20;99.90;;;;;;5042843;28;20030;-75
2024/01/03 09:55:29;;;;;;;16.20;3.70;;;11.30;99.90;;;;;;5038584;28;20017;-75
2024/01/03 09:57:55;;;;;;;22.20;4.25;;;11.30;99.90;;;;;;5037276;28;20521;-74
2024/01/03 10:00:23;;;;;;;27.95;4.93;;;11.30;99.90;;;;;;5037896;28;20031;-75
2024/01/03 10:02:49;;;;;;;19.48;3.70;;;11.30;99.90;;;;;;5036193;28;20017;-75
2024/01/03 10:05:19;;;;;;;26.35;3.95;;;11.30;99.90;;;;;;5031237;28;20021;-75
2024/01/03 10:07:45;;;;;;;23.80;3.63;;;11.30;99.90;;;;;;5033235;28;20033;-74
2024/01/03 10:10:11;;;;;;;20.75;4.22;;;11.20;99.90;;;;;;5037477;28;20087;-75
2024/01/03 10:12:37;;;;;;;15.50;3.28;;;11.20;99.90;;;;;;5033147;28;20065;-75
2024/01/03 10:15:21;;;;;;;23.50;3.80;;;11.20;99.90;;;;;;5037510;28;20458;-75
2024/01/03 10:17:47;;;;;;;16.67;3.25;;;11.20;99.90;;;;;;5037591;28;20108;-76
2024/01/03 10:20:26;;;;;;;19.20;3.75;;;11.30;99.90;;;;;;5037212;28;20101;-76
2024/01/03 10:23:11;;;;;;;22.80;3.22;;;11.20;99.90;;;;;;5035323;28;20032;-76
2024/01/03 10:25:38;;;;;;;17.75;3.90;;;11.20;99.90;;;;;;5036229;28;20510;-76
2024/01/03 10:28:09;;;;;;;20.85;4.15;;;11.30;99.90;;;;;;5034276;28;20435;-75
2024/01/03 10:30:35;;;;;;;15.75;3.30;;;11.30;99.90;;;;;;5038697;28;20075;-76
2024/01/03 10:33:05;;;;;;;25.08;4.18;;;11.40;99.90;;;;;;5035278;28;20409;-76
2024/01/03 10:35:47;;;;;;;22.48;3.90;;;11.40;99.90;;;;;;5035988;28;20351;-75
2024/01/03 10:38:24;;;;;;;17.13;3.20;;;11.40;99.90;;;;;;5035434;28;20034;-75
2024/01/03 10:40:50;;;;;;;23.67;3.92;;;11.40;99.90;;;;;;5035303;28;20129;-76
2024/01/03 10:43:16;;;;;;;24.08;3.85;;;11.40;99.90;;;;;;5036890;28;20021;-75
2024/01/03 10:45:42;;;;;;;21.05;3.22;;;11.40;99.90;;;;;;5039629;28;20021;-75
2024/01/03 10:48:07;;;;;;;19.40;3.83;;;11.40;99.90;;;;;;5036476;28;20029;-75
2024/01/03 10:50:34;;;;;;;27.20;4.55;;;11.40;99.90;;;;;;5040030;28;20044;-75
2024/01/03 10:53:07;;;;;;;16.38;3.33;;;11.50;99.90;;;;;;5041200;28;20013;-75
2024/01/03 10:55:37;;;;;;;16.83;2.90;;;11.60;99.90;;;;;;5038519;28;20020;-75
2024/01/03 10:58:13;;;;;;;16.25;3.67;;;11.50;99.90;;;;;;5036394;28;20036;-75
2024/01/03 11:00:57;;;;;;;15.68;3.47;;;11.50;99.90;;;;;;5034780;28;20052;-75
2024/01/03 11:03:37;;;;;;;13.25;2.80;;;11.60;99.90;;;;;;5038667;28;20064;-75
2024/01/03 11:06:17;;;;;;;18.58;3.45;;;11.50;99.90;;;;;;5039271;28;20466;-74
2024/01/03 11:08:53;;;;;;;21.75;3.38;;;11.50;99.90;;;;;;5033218;28;20072;-75
2024/01/03 11:11:29;;;;;;;19.38;3.97;;;11.50;99.90;;;;;;5032146;28;20373;-74
2024/01/03 11:13:58;;;;;;;13.18;3.45;;;11.40;99.90;;;;;;5033919;28;20028;-74
2024/01/03 11:16:38;;;;;;;12.55;3.20;;;11.50;99.90;;;;;;5034192;28;20020;-74
2024/01/03 11:19:05;;;;;;;12.85;3.10;;;11.50;99.90;;;;;;5034841;28;20022;-74
2024/01/03 11:21:37;;;;;;;13.93;2.63;;;11.60;99.90;;;;;;5034360;28;20493;-75
2024/01/03 11:24:07;;;;;;;14.50;3.05;;;11.60;99.90;;;;;;5034186;28;20025;-75
2024/01/03 11:26:52;;;;;;;11.80;2.92;;;11.60;99.90;;;;;;5040638;28;20032;-74
2024/01/03 11:29:36;;;;;;;14.80;3.22;;;11.50;99.90;;;;;;5038139;28;20481;-74
2024/01/03 11:32:06;;;;;;;15.15;2.67;;;11.40;99.90;;;;;;5037877;28;20036;-75
2024/01/03 11:34:44;;;;;;;15.82;3.25;;;11.40;99.90;;;;;;5036333;28;20020;-75
2024/01/03 11:37:18;;;;;;;20.73;3.05;;;11.40;99.90;;;;;;5035832;28;20024;-75
2024/01/03 11:39:50;;;;;;;13.95;2.97;;;11.40;99.90;;;;;;5032161;28;20243;-75
2024/01/03 11:42:21;;;;;;;15.80;3.90;;;11.40;99.90;;;;;;5031738;28;20021;-76
2024/01/03 11:45:07;;;;;;;18.42;3.90;;;11.40;99.90;;;;;;5035285;28;20104;-75
2024/01/03 11:47:38;;;;;;;21.45;3.05;;;11.30;99.90;;;;;;5038972;28;20113;-75
2024/01/03 11:50:05;;;;;;;19.25;3.97;;;11.30;99.90;;;;;;5035039;28;20033;-76
2024/01/03 11:52:37;;;;;;;19.23;3.70;;;11.30;99.90;;;;;;5039065;28;20108;-75
2024/01/03 11:55:10;;;;;;;21.17;4.10;;;11.40;99.90;;;;;;5035657;28;20012;-73
2024/01/03 11:57:44;;;;;;;20.52;3.55;;;11.30;99.90;;;;;;5038037;28;20025;-72
2024/01/03 12:00:12;;;;;;;21.42;3.50;;;11.20;99.90;;;;;;5032135;28;20021;-73
2024/01/03 12:02:55;;;;;;;16.05;3.60;;;11.20;99.90;;;;;;5034385;28;20026;-73
2024/01/03 12:05:22;;;;;;;14.27;3.08;;;11.30;99.90;;;;;;5038736;28;20025;-73
2024/01/03 12:07:49;;;;;;;19.70;3.63;;;11.30;99.90;;;;;;5035174;28;20025;-73
2024/01/03 12:10:16;;;;;;;13.63;2.88;;;11.30;99.90;;;;;;5040613;28;20037;-73
2024/01/03 12:12:44;;;;;;;22.15;4.25;;;11.40;99.90;;;;;;5034823;28;20115;-73
2024/01/03 12:15:21;;;;;;;19.85;3.97;;;11.40;99.90;;;;;;5033212;28;20034;-75
2024/01/03 12:17:47;;;;;;;20.50;4.38;;;11.50;99.90;;;;;;5033262;28;20013;-74
2024/01/03 12:20:14;;;;;;;22.20;6.18;;;11.40;99.90;;;;;;5034763;28;20553;-75
2024/01/03 12:22:40;;;;;;;26.08;4.53;;;11.40;99.90;;;;;;5030681;28;20025;-74
2024/01/03 12:25:15;;;;;;;18.23;3.40;;;11.40;99.90;;;;;;5037216;28;20040;-74
2024/01/03 12:27:41;;;;;;;9.88;3.17;;;11.30;99.90;;;;;;5034686;28;20053;-74
2024/01/03 12:30:15;;;;;;;9.35;2.35;;;11.40;99.90;;;;;;5032652;28;20114;-73
2024/01/03 12:32:42;;;;;;;8.57;2.42;;;11.40;99.90;;;;;;5031786;28;20105;-73
2024/01/03 12:35:08;;;;;;;11.93;2.38;;;11.50;99.90;;;;;;5034190;28;20021;-73
2024/01/03 12:37:34;;;;;;;12.43;2.97;;;11.50;99.90;;;;;;5034853;28;20029;-73